sensor_id;sensor_type;location;lat;lon;timestamp;temperature;humidity
85830;DHT22;76277;49.212;16.680;2024-03-23T00:56:22;10.39;70.20
85830;DHT22;76277;49.212;16.680;2024-03-23T00:59:06;10.39;70.20
85830;DHT22;76277;49.212;16.680;2024-03-23T01:01:51;10.39;70.20
85830;DHT22;76277;49.212;16.680;2024-03-23T01:04:35;10.39;70.20
85830;DHT22;76277;49.212;16.680;2024-03-23T01:07:20;10.39;70.20
85830;DHT22;76277;49.212;16.680;2024-03-23T01:10:05;10.39;70.20
85830;DHT22;76277;49.212;16.680;2024-03-23T01:12:49;10.26;70.89
85830;DHT22;76277;49.212;16.680;2024-03-23T01:15:34;10.26;70.89
85830;DHT22;76277;49.212;16.680;2024-03-23T01:18:19;10.26;70.89
85830;DHT22;76277;49.212;16.680;2024-03-23T01:21:03;10.26;70.89
85830;DHT22;76277;49.212;16.680;2024-03-23T01:23:48;10.26;70.89
85830;DHT22;76277;49.212;16.680;2024-03-23T01:26:33;10.25;69.54
85830;DHT22;76277;49.212;16.680;2024-03-23T01:29:17;10.25;69.54
85830;DHT22;76277;49.212;16.680;2024-03-23T01:32:02;10.25;69.54
85830;DHT22;76277;49.212;16.680;2024-03-23T01:34:47;10.25;69.54
85830;DHT22;76277;49.212;16.680;2024-03-23T01:37:31;10.25;69.54
85830;DHT22;76277;49.212;16.680;2024-03-23T01:40:16;10.25;69.54
85830;DHT22;76277;49.212;16.680;2024-03-23T01:43:03;10.25;71.01
85830;DHT22;76277;49.212;16.680;2024-03-23T01:45:45;10.25;71.01
85830;DHT22;76277;49.212;16.680;2024-03-23T01:48:30;10.25;71.01
85830;DHT22;76277;49.212;16.680;2024-03-23T01:51:15;10.25;71.01
85830;DHT22;76277;49.212;16.680;2024-03-23T01:53:59;10.25;71.01
85830;DHT22;76277;49.212;16.680;2024-03-23T01:56:44;10.16;71.61
85830;DHT22;76277;49.212;16.680;2024-03-23T01:59:29;10.16;71.61
85830;DHT22;76277;49.212;16.680;2024-03-23T02:02:13;10.16;71.61
85830;DHT22;76277;49.212;16.680;2024-03-23T02:04:58;10.16;71.61
85830;DHT22;76277;49.212;16.680;2024-03-23T02:07:43;10.16;71.61
85830;DHT22;76277;49.212;16.680;2024-03-23T02:10:27;10.16;71.61
85830;DHT22;76277;49.212;16.680;2024-03-23T02:13:12;10.04;71.83
85830;DHT22;76277;49.212;16.680;2024-03-23T02:15:57;10.04;71.83
85830;DHT22;76277;49.212;16.680;2024-03-23T02:18:41;10.04;71.83
85830;DHT22;76277;49.212;16.680;2024-03-23T02:21:26;10.04;71.83
85830;DHT22;76277;49.212;16.680;2024-03-23T02:24:10;10.04;71.83
85830;DHT22;76277;49.212;16.680;2024-03-23T02:26:55;10.03;71.90
85830;DHT22;76277;49.212;16.680;2024-03-23T02:29:40;10.03;71.90
85830;DHT22;76277;49.212;16.680;2024-03-23T02:32:24;10.03;71.90
85830;DHT22;76277;49.212;16.680;2024-03-23T02:35:09;10.03;71.90
85830;DHT22;76277;49.212;16.680;2024-03-23T02:37:54;10.03;71.90
85830;DHT22;76277;49.212;16.680;2024-03-23T02:40:38;10.03;71.90
85830;DHT22;76277;49.212;16.680;2024-03-23T02:43:23;10.17;70.54
85830;DHT22;76277;49.212;16.680;2024-03-23T02:46:08;10.17;70.54
85830;DHT22;76277;49.212;16.680;2024-03-23T02:48:53;10.17;70.54
85830;DHT22;76277;49.212;16.680;2024-03-23T02:51:37;10.17;70.54
85830;DHT22;76277;49.212;16.680;2024-03-23T02:54:22;10.17;70.54
85830;DHT22;76277;49.212;16.680;2024-03-23T02:57:07;10.46;68.97
85830;DHT22;76277;49.212;16.680;2024-03-23T02:59:51;10.46;68.97
85830;DHT22;76277;49.212;16.680;2024-03-23T03:02:36;10.46;68.97
85830;DHT22;76277;49.212;16.680;2024-03-23T03:05:21;10.46;68.97
85830;DHT22;76277;49.212;16.680;2024-03-23T03:08:06;10.46;68.97
85830;DHT22;76277;49.212;16.680;2024-03-23T03:10:50;10.46;68.97
85830;DHT22;76277;49.212;16.680;2024-03-23T03:13:35;9.98;71.19
85830;DHT22;76277;49.212;16.680;2024-03-23T03:16:19;9.98;71.19
85830;DHT22;76277;49.212;16.680;2024-03-23T03:19:04;9.98;71.19
85830;DHT22;76277;49.212;16.680;2024-03-23T03:21:49;9.98;71.19
85830;DHT22;76277;49.212;16.680;2024-03-23T03:24:33;9.98;71.19
85830;DHT22;76277;49.212;16.680;2024-03-23T03:27:18;9.97;71.01
85830;DHT22;76277;49.212;16.680;2024-03-23T03:30:03;9.97;71.01
85830;DHT22;76277;49.212;16.680;2024-03-23T03:32:47;9.97;71.01
85830;DHT22;76277;49.212;16.680;2024-03-23T03:35:32;9.97;71.01
85830;DHT22;76277;49.212;16.680;2024-03-23T03:38:17;9.97;71.01
85830;DHT22;76277;49.212;16.680;2024-03-23T03:41:01;9.75;72.66
85830;DHT22;76277;49.212;16.680;2024-03-23T03:43:46;9.75;72.66
85830;DHT22;76277;49.212;16.680;2024-03-23T03:46:31;9.75;72.66
85830;DHT22;76277;49.212;16.680;2024-03-23T03:49:15;9.75;72.66
85830;DHT22;76277;49.212;16.680;2024-03-23T03:52:00;9.75;72.66
85830;DHT22;76277;49.212;16.680;2024-03-23T03:54:45;9.75;72.66
85830;DHT22;76277;49.212;16.680;2024-03-23T03:57:29;9.51;73.54
85830;DHT22;76277;49.212;16.680;2024-03-23T04:00:14;9.51;73.54
85830;DHT22;76277;49.212;16.680;2024-03-23T04:02:59;9.51;73.54
85830;DHT22;76277;49.212;16.680;2024-03-23T04:05:47;9.51;73.54
85830;DHT22;76277;49.212;16.680;2024-03-23T04:08:28;9.51;73.54
85830;DHT22;76277;49.212;16.680;2024-03-23T04:11:12;9.33;73.46
85830;DHT22;76277;49.212;16.680;2024-03-23T04:13:57;9.33;73.46
85830;DHT22;76277;49.212;16.680;2024-03-23T04:16:42;9.33;73.46
85830;DHT22;76277;49.212;16.680;2024-03-23T04:19:26;9.33;73.46
85830;DHT22;76277;49.212;16.680;2024-03-23T04:22:11;9.33;73.46
85830;DHT22;76277;49.212;16.680;2024-03-23T04:24:56;9.33;73.46
85830;DHT22;76277;49.212;16.680;2024-03-23T04:27:40;9.62;72.50
85830;DHT22;76277;49.212;16.680;2024-03-23T04:30:25;9.62;72.50
85830;DHT22;76277;49.212;16.680;2024-03-23T04:33:10;9.62;72.50
85830;DHT22;76277;49.212;16.680;2024-03-23T04:35:55;9.62;72.50
85830;DHT22;76277;49.212;16.680;2024-03-23T04:38:39;9.62;72.50
85830;DHT22;76277;49.212;16.680;2024-03-23T04:41:24;9.36;73.64
85830;DHT22;76277;49.212;16.680;2024-03-23T04:44:08;9.36;73.64
85830;DHT22;76277;49.212;16.680;2024-03-23T04:46:53;9.36;73.64
85830;DHT22;76277;49.212;16.680;2024-03-23T04:49:38;9.36;73.64
85830;DHT22;76277;49.212;16.680;2024-03-23T04:52:22;9.36;73.64
85830;DHT22;76277;49.212;16.680;2024-03-23T04:57:52;8.59;76.25
85830;DHT22;76277;49.212;16.680;2024-03-23T05:00:36;8.59;76.25
85830;DHT22;76277;49.212;16.680;2024-03-23T05:03:21;8.59;76.25
85830;DHT22;76277;49.212;16.680;2024-03-23T05:06:06;8.59;76.25
85830;DHT22;76277;49.212;16.680;2024-03-23T05:08:51;8.59;76.25
85830;DHT22;76277;49.212;16.680;2024-03-23T05:11:36;8.66;76.83
85830;DHT22;76277;49.212;16.680;2024-03-23T05:14:21;8.66;76.83
85830;DHT22;76277;49.212;16.680;2024-03-23T05:17:04;8.66;76.83
85830;DHT22;76277;49.212;16.680;2024-03-23T05:19:49;8.66;76.83
85830;DHT22;76277;49.212;16.680;2024-03-23T05:22:34;8.66;76.83
85830;DHT22;76277;49.212;16.680;2024-03-23T05:25:18;8.66;76.83
85830;DHT22;76277;49.212;16.680;2024-03-23T05:28:03;9.09;75.62
85830;DHT22;76277;49.212;16.680;2024-03-23T05:30:50;9.09;75.62
85830;DHT22;76277;49.212;16.680;2024-03-23T05:33:32;9.09;75.62
85830;DHT22;76277;49.212;16.680;2024-03-23T05:36:17;9.09;75.62
85830;DHT22;76277;49.212;16.680;2024-03-23T05:39:02;9.09;75.62
85830;DHT22;76277;49.212;16.680;2024-03-23T05:41:47;8.54;77.02
85830;DHT22;76277;49.212;16.680;2024-03-23T05:44:31;8.54;77.02
85830;DHT22;76277;49.212;16.680;2024-03-23T05:47:16;8.54;77.02
85830;DHT22;76277;49.212;16.680;2024-03-23T05:50:00;8.54;77.02
85830;DHT22;76277;49.212;16.680;2024-03-23T05:52:45;8.54;77.02
85830;DHT22;76277;49.212;16.680;2024-03-23T05:55:30;8.54;77.02
85830;DHT22;76277;49.212;16.680;2024-03-23T05:58:15;8.96;76.27
85830;DHT22;76277;49.212;16.680;2024-03-23T06:00:59;8.96;76.27
85830;DHT22;76277;49.212;16.680;2024-03-23T06:03:44;8.96;76.27
85830;DHT22;76277;49.212;16.680;2024-03-23T06:06:28;8.96;76.27
85830;DHT22;76277;49.212;16.680;2024-03-23T06:09:13;8.96;76.27
85830;DHT22;76277;49.212;16.680;2024-03-23T06:11:58;10.35;72.66
85830;DHT22;76277;49.212;16.680;2024-03-23T06:14:42;10.35;72.66
85830;DHT22;76277;49.212;16.680;2024-03-23T06:17:27;10.35;72.66
85830;DHT22;76277;49.212;16.680;2024-03-23T06:20:12;10.35;72.66
85830;DHT22;76277;49.212;16.680;2024-03-23T06:22:56;10.35;72.66
85830;DHT22;76277;49.212;16.680;2024-03-23T06:25:41;10.35;72.66
85830;DHT22;76277;49.212;16.680;2024-03-23T06:28:25;9.33;75.27
85830;DHT22;76277;49.212;16.680;2024-03-23T06:31:10;9.33;75.27
85830;DHT22;76277;49.212;16.680;2024-03-23T06:33:55;9.33;75.27
85830;DHT22;76277;49.212;16.680;2024-03-23T06:36:40;9.33;75.27
85830;DHT22;76277;49.212;16.680;2024-03-23T06:39:24;9.33;75.27
85830;DHT22;76277;49.212;16.680;2024-03-23T06:42:09;8.85;77.17
85830;DHT22;76277;49.212;16.680;2024-03-23T06:44:54;8.85;77.17
85830;DHT22;76277;49.212;16.680;2024-03-23T06:47:38;8.85;77.17
85830;DHT22;76277;49.212;16.680;2024-03-23T06:50:23;8.85;77.17
85830;DHT22;76277;49.212;16.680;2024-03-23T06:53:08;8.85;77.17
85830;DHT22;76277;49.212;16.680;2024-03-23T06:55:53;8.85;77.17
85830;DHT22;76277;49.212;16.680;2024-03-23T06:58:37;9.28;76.46
85830;DHT22;76277;49.212;16.680;2024-03-23T07:01:21;9.28;76.46
85830;DHT22;76277;49.212;16.680;2024-03-23T07:04:06;9.28;76.46
85830;DHT22;76277;49.212;16.680;2024-03-23T07:06:51;9.28;76.46
85830;DHT22;76277;49.212;16.680;2024-03-23T07:09:36;9.28;76.46
85830;DHT22;76277;49.212;16.680;2024-03-23T07:12:20;10.12;75.09
85830;DHT22;76277;49.212;16.680;2024-03-23T07:15:05;10.12;75.09
85830;DHT22;76277;49.212;16.680;2024-03-23T07:17:49;10.12;75.09
85830;DHT22;76277;49.212;16.680;2024-03-23T07:20:34;10.12;75.09
85830;DHT22;76277;49.212;16.680;2024-03-23T07:23:19;10.12;75.09
85830;DHT22;76277;49.212;16.680;2024-03-23T07:26:04;10.12;75.09
85830;DHT22;76277;49.212;16.680;2024-03-23T07:28:48;10.32;74.47
85830;DHT22;76277;49.212;16.680;2024-03-23T07:31:33;10.32;74.47
85830;DHT22;76277;49.212;16.680;2024-03-23T07:34:17;10.32;74.47
85830;DHT22;76277;49.212;16.680;2024-03-23T07:37:02;10.32;74.47
85830;DHT22;76277;49.212;16.680;2024-03-23T07:39:47;10.32;74.47
85830;DHT22;76277;49.212;16.680;2024-03-23T07:42:31;10.74;74.36
85830;DHT22;76277;49.212;16.680;2024-03-23T07:45:16;10.74;74.36
85830;DHT22;76277;49.212;16.680;2024-03-23T07:48:01;10.74;74.36
85830;DHT22;76277;49.212;16.680;2024-03-23T07:50:46;10.74;74.36
85830;DHT22;76277;49.212;16.680;2024-03-23T07:53:31;10.74;74.36
85830;DHT22;76277;49.212;16.680;2024-03-23T07:56:15;10.74;74.36
85830;DHT22;76277;49.212;16.680;2024-03-23T07:58:59;11.18;73.43
85830;DHT22;76277;49.212;16.680;2024-03-23T08:01:44;11.18;73.43
85830;DHT22;76277;49.212;16.680;2024-03-23T08:04:29;11.18;73.43
85830;DHT22;76277;49.212;16.680;2024-03-23T08:07:14;11.18;73.43
85830;DHT22;76277;49.212;16.680;2024-03-23T08:09:58;11.18;73.43
85830;DHT22;76277;49.212;16.680;2024-03-23T08:12:43;11.70;72.70
85830;DHT22;76277;49.212;16.680;2024-03-23T08:15:29;11.70;72.70
85830;DHT22;76277;49.212;16.680;2024-03-23T08:18:12;11.70;72.70
85830;DHT22;76277;49.212;16.680;2024-03-23T08:20:57;11.70;72.70
85830;DHT22;76277;49.212;16.680;2024-03-23T08:23:41;11.70;72.70
85830;DHT22;76277;49.212;16.680;2024-03-23T08:26:26;11.70;72.70
85830;DHT22;76277;49.212;16.680;2024-03-23T08:29:11;12.24;72.40
85830;DHT22;76277;49.212;16.680;2024-03-23T08:31:56;12.24;72.40
85830;DHT22;76277;49.212;16.680;2024-03-23T08:34:40;12.24;72.40
85830;DHT22;76277;49.212;16.680;2024-03-23T08:37:25;12.24;72.40
85830;DHT22;76277;49.212;16.680;2024-03-23T08:40:10;12.24;72.40
85830;DHT22;76277;49.212;16.680;2024-03-23T08:42:54;12.55;72.59
85830;DHT22;76277;49.212;16.680;2024-03-23T08:45:39;12.55;72.59
85830;DHT22;76277;49.212;16.680;2024-03-23T08:48:23;12.55;72.59
85830;DHT22;76277;49.212;16.680;2024-03-23T08:51:08;12.55;72.59
85830;DHT22;76277;49.212;16.680;2024-03-23T08:53:53;12.55;72.59
85830;DHT22;76277;49.212;16.680;2024-03-23T08:56:37;12.55;72.59
85830;DHT22;76277;49.212;16.680;2024-03-23T08:59:22;12.74;72.99
85830;DHT22;76277;49.212;16.680;2024-03-23T09:02:07;12.74;72.99
85830;DHT22;76277;49.212;16.680;2024-03-23T09:04:52;12.74;72.99
85830;DHT22;76277;49.212;16.680;2024-03-23T09:07:36;12.74;72.99
85830;DHT22;76277;49.212;16.680;2024-03-23T09:10:21;12.74;72.99
85830;DHT22;76277;49.212;16.680;2024-03-23T09:13:05;13.28;72.43
85830;DHT22;76277;49.212;16.680;2024-03-23T09:15:51;13.28;72.43
85830;DHT22;76277;49.212;16.680;2024-03-23T09:18:35;13.28;72.43
85830;DHT22;76277;49.212;16.680;2024-03-23T09:21:19;13.28;72.43
85830;DHT22;76277;49.212;16.680;2024-03-23T09:24:04;13.28;72.43
85830;DHT22;76277;49.212;16.680;2024-03-23T09:26:49;13.28;72.43
85830;DHT22;76277;49.212;16.680;2024-03-23T09:29:33;13.76;72.05
85830;DHT22;76277;49.212;16.680;2024-03-23T09:32:18;13.76;72.05
85830;DHT22;76277;49.212;16.680;2024-03-23T09:35:03;13.76;72.05
85830;DHT22;76277;49.212;16.680;2024-03-23T09:37:47;13.76;72.05
85830;DHT22;76277;49.212;16.680;2024-03-23T09:40:32;13.76;72.05
85830;DHT22;76277;49.212;16.680;2024-03-23T09:43:17;14.39;69.24
85830;DHT22;76277;49.212;16.680;2024-03-23T09:46:01;14.39;69.24
85830;DHT22;76277;49.212;16.680;2024-03-23T09:48:46;14.39;69.24
85830;DHT22;76277;49.212;16.680;2024-03-23T09:51:31;14.39;69.24
85830;DHT22;76277;49.212;16.680;2024-03-23T09:54:16;14.39;69.24
85830;DHT22;76277;49.212;16.680;2024-03-23T09:57:00;14.39;69.24
85830;DHT22;76277;49.212;16.680;2024-03-23T09:59:45;15.02;67.62
85830;DHT22;76277;49.212;16.680;2024-03-23T10:02:29;15.02;67.62
85830;DHT22;76277;49.212;16.680;2024-03-23T10:05:22;15.02;67.62
85830;DHT22;76277;49.212;16.680;2024-03-23T10:07:59;15.02;67.62
85830;DHT22;76277;49.212;16.680;2024-03-23T10:10:44;15.02;67.62
85830;DHT22;76277;49.212;16.680;2024-03-23T10:13:28;15.65;66.23
85830;DHT22;76277;49.212;16.680;2024-03-23T10:16:20;15.65;66.23
85830;DHT22;76277;49.212;16.680;2024-03-23T10:18:57;15.65;66.23
85830;DHT22;76277;49.212;16.680;2024-03-23T10:21:46;15.65;66.23
85830;DHT22;76277;49.212;16.680;2024-03-23T10:24:31;15.65;66.23
85830;DHT22;76277;49.212;16.680;2024-03-23T10:27:13;15.65;66.23
85830;DHT22;76277;49.212;16.680;2024-03-23T10:29:56;16.11;62.90
85830;DHT22;76277;49.212;16.680;2024-03-23T10:32:41;16.11;62.90
85830;DHT22;76277;49.212;16.680;2024-03-23T10:35:25;16.11;62.90
85830;DHT22;76277;49.212;16.680;2024-03-23T10:38:10;16.11;62.90
85830;DHT22;76277;49.212;16.680;2024-03-23T10:40:55;16.11;62.90
85830;DHT22;76277;49.212;16.680;2024-03-23T10:43:39;17.09;59.77
85830;DHT22;76277;49.212;16.680;2024-03-23T10:46:24;17.09;59.77
85830;DHT22;76277;49.212;16.680;2024-03-23T10:49:09;17.09;59.77
85830;DHT22;76277;49.212;16.680;2024-03-23T10:51:53;17.09;59.77
85830;DHT22;76277;49.212;16.680;2024-03-23T10:54:38;17.09;59.77
85830;DHT22;76277;49.212;16.680;2024-03-23T10:57:23;17.09;59.77
85830;DHT22;76277;49.212;16.680;2024-03-23T11:00:08;17.59;57.10
85830;DHT22;76277;49.212;16.680;2024-03-23T11:02:52;17.59;57.10
85830;DHT22;76277;49.212;16.680;2024-03-23T11:05:37;17.59;57.10
85830;DHT22;76277;49.212;16.680;2024-03-23T11:11:14;17.59;57.10
85830;DHT22;76277;49.212;16.680;2024-03-23T11:13:51;18.71;52.65
85830;DHT22;76277;49.212;16.680;2024-03-23T11:16:35;18.71;52.65
85830;DHT22;76277;49.212;16.680;2024-03-23T11:22:05;18.71;52.65
85830;DHT22;76277;49.212;16.680;2024-03-23T11:24:50;18.71;52.65
85830;DHT22;76277;49.212;16.680;2024-03-23T11:27:34;18.71;52.65
85830;DHT22;76277;49.212;16.680;2024-03-23T11:30:19;21.90;46.02
85830;DHT22;76277;49.212;16.680;2024-03-23T11:33:03;21.90;46.02
85830;DHT22;76277;49.212;16.680;2024-03-23T11:35:48;21.90;46.02
85830;DHT22;76277;49.212;16.680;2024-03-23T11:38:36;21.90;46.02
85830;DHT22;76277;49.212;16.680;2024-03-23T11:41:17;21.90;46.02
85830;DHT22;76277;49.212;16.680;2024-03-23T11:46:46;21.08;46.45
85830;DHT22;76277;49.212;16.680;2024-03-23T11:49:31;21.08;46.45
85830;DHT22;76277;49.212;16.680;2024-03-23T11:52:16;21.08;46.45
85830;DHT22;76277;49.212;16.680;2024-03-23T11:55:03;21.08;46.45
85830;DHT22;76277;49.212;16.680;2024-03-23T11:57:45;21.08;46.45
85830;DHT22;76277;49.212;16.680;2024-03-23T12:00:30;18.61;50.63
85830;DHT22;76277;49.212;16.680;2024-03-23T12:03:15;18.61;50.63
85830;DHT22;76277;49.212;16.680;2024-03-23T12:06:00;18.61;50.63
85830;DHT22;76277;49.212;16.680;2024-03-23T12:08:44;18.61;50.63
85830;DHT22;76277;49.212;16.680;2024-03-23T12:11:29;18.61;50.63
85830;DHT22;76277;49.212;16.680;2024-03-23T12:14:14;13.72;76.30
85830;DHT22;76277;49.212;16.680;2024-03-23T12:19:43;13.72;76.30
85830;DHT22;76277;49.212;16.680;2024-03-23T12:22:27;13.72;76.30
85830;DHT22;76277;49.212;16.680;2024-03-23T12:25:12;13.72;76.30
85830;DHT22;76277;49.212;16.680;2024-03-23T12:27:58;10.20;93.42
85830;DHT22;76277;49.212;16.680;2024-03-23T12:30:41;10.20;93.42
85830;DHT22;76277;49.212;16.680;2024-03-23T12:33:26;10.20;93.42
85830;DHT22;76277;49.212;16.680;2024-03-23T12:36:11;10.20;93.42
85830;DHT22;76277;49.212;16.680;2024-03-23T12:38:55;10.20;93.42
85830;DHT22;76277;49.212;16.680;2024-03-23T12:41:40;10.20;93.42
85830;DHT22;76277;49.212;16.680;2024-03-23T12:44:24;10.95;88.97
85830;DHT22;76277;49.212;16.680;2024-03-23T12:47:09;10.95;88.97
85830;DHT22;76277;49.212;16.680;2024-03-23T12:49:54;10.95;88.97
85830;DHT22;76277;49.212;16.680;2024-03-23T12:52:39;10.95;88.97
85830;DHT22;76277;49.212;16.680;2024-03-23T12:55:23;10.95;88.97
85830;DHT22;76277;49.212;16.680;2024-03-23T12:58:08;10.17;84.03
85830;DHT22;76277;49.212;16.680;2024-03-23T13:00:52;10.17;84.03
85830;DHT22;76277;49.212;16.680;2024-03-23T13:03:37;10.17;84.03
85830;DHT22;76277;49.212;16.680;2024-03-23T13:06:22;10.17;84.03
85830;DHT22;76277;49.212;16.680;2024-03-23T13:09:06;10.17;84.03
85830;DHT22;76277;49.212;16.680;2024-03-23T13:11:51;10.17;84.03
85830;DHT22;76277;49.212;16.680;2024-03-23T13:14:36;10.62;79.96
85830;DHT22;76277;49.212;16.680;2024-03-23T13:17:20;10.62;79.96
85830;DHT22;76277;49.212;16.680;2024-03-23T13:20:06;10.62;79.96
85830;DHT22;76277;49.212;16.680;2024-03-23T13:25:35;10.62;79.96
85830;DHT22;76277;49.212;16.680;2024-03-23T13:28:19;11.09;79.21
85830;DHT22;76277;49.212;16.680;2024-03-23T13:31:04;11.09;79.21
85830;DHT22;76277;49.212;16.680;2024-03-23T13:33:48;11.09;79.21
85830;DHT22;76277;49.212;16.680;2024-03-23T13:36:33;11.09;79.21
85830;DHT22;76277;49.212;16.680;2024-03-23T13:39:18;11.09;79.21
85830;DHT22;76277;49.212;16.680;2024-03-23T13:42:02;11.09;79.21
85830;DHT22;76277;49.212;16.680;2024-03-23T13:44:47;11.12;76.71
85830;DHT22;76277;49.212;16.680;2024-03-23T13:47:32;11.12;76.71
85830;DHT22;76277;49.212;16.680;2024-03-23T13:50:16;11.12;76.71
85830;DHT22;76277;49.212;16.680;2024-03-23T13:53:01;11.12;76.71
85830;DHT22;76277;49.212;16.680;2024-03-23T13:55:46;11.12;76.71
85830;DHT22;76277;49.212;16.680;2024-03-23T13:58:30;15.16;63.15
85830;DHT22;76277;49.212;16.680;2024-03-23T14:01:16;15.16;63.15
85830;DHT22;76277;49.212;16.680;2024-03-23T14:04:00;15.16;63.15
85830;DHT22;76277;49.212;16.680;2024-03-23T14:06:44;15.16;63.15
85830;DHT22;76277;49.212;16.680;2024-03-23T14:09:29;15.16;63.15
85830;DHT22;76277;49.212;16.680;2024-03-23T14:12:14;15.16;63.15
85830;DHT22;76277;49.212;16.680;2024-03-23T14:14:58;12.27;71.44
85830;DHT22;76277;49.212;16.680;2024-03-23T14:17:43;12.27;71.44
85830;DHT22;76277;49.212;16.680;2024-03-23T14:20:28;12.27;71.44
85830;DHT22;76277;49.212;16.680;2024-03-23T14:23:12;12.27;71.44
85830;DHT22;76277;49.212;16.680;2024-03-23T14:25:57;12.27;71.44
85830;DHT22;76277;49.212;16.680;2024-03-23T14:28:42;11.94;71.05
85830;DHT22;76277;49.212;16.680;2024-03-23T14:31:26;11.94;71.05
85830;DHT22;76277;49.212;16.680;2024-03-23T14:34:11;11.94;71.05
85830;DHT22;76277;49.212;16.680;2024-03-23T14:36:56;11.94;71.05
85830;DHT22;76277;49.212;16.680;2024-03-23T14:39:40;11.94;71.05
85830;DHT22;76277;49.212;16.680;2024-03-23T14:42:25;11.94;71.05
85830;DHT22;76277;49.212;16.680;2024-03-23T14:45:10;11.90;67.88
85830;DHT22;76277;49.212;16.680;2024-03-23T14:47:54;11.90;67.88
85830;DHT22;76277;49.212;16.680;2024-03-23T14:50:39;11.90;67.88
85830;DHT22;76277;49.212;16.680;2024-03-23T14:53:24;11.90;67.88
85830;DHT22;76277;49.212;16.680;2024-03-23T14:56:09;11.90;67.88
85830;DHT22;76277;49.212;16.680;2024-03-23T14:58:53;11.88;67.33
85830;DHT22;76277;49.212;16.680;2024-03-23T15:01:38;11.88;67.33
85830;DHT22;76277;49.212;16.680;2024-03-23T15:04:22;11.88;67.33
85830;DHT22;76277;49.212;16.680;2024-03-23T15:07:07;11.88;67.33
85830;DHT22;76277;49.212;16.680;2024-03-23T15:09:51;11.88;67.33
85830;DHT22;76277;49.212;16.680;2024-03-23T15:12:36;11.88;67.33
85830;DHT22;76277;49.212;16.680;2024-03-23T15:15:21;11.83;66.02
85830;DHT22;76277;49.212;16.680;2024-03-23T15:18:06;11.83;66.02
85830;DHT22;76277;49.212;16.680;2024-03-23T15:20:51;11.83;66.02
85830;DHT22;76277;49.212;16.680;2024-03-23T15:23:35;11.83;66.02
85830;DHT22;76277;49.212;16.680;2024-03-23T15:26:20;11.83;66.02
85830;DHT22;76277;49.212;16.680;2024-03-23T15:29:04;11.61;67.93
85830;DHT22;76277;49.212;16.680;2024-03-23T15:31:49;11.61;67.93
85830;DHT22;76277;49.212;16.680;2024-03-23T15:34:34;11.61;67.93
85830;DHT22;76277;49.212;16.680;2024-03-23T15:37:18;11.61;67.93
85830;DHT22;76277;49.212;16.680;2024-03-23T15:40:03;11.61;67.93
85830;DHT22;76277;49.212;16.680;2024-03-23T15:42:48;11.61;67.93
85830;DHT22;76277;49.212;16.680;2024-03-23T15:45:32;7.05;99.19
85830;DHT22;76277;49.212;16.680;2024-03-23T15:48:17;7.05;99.19
85830;DHT22;76277;49.212;16.680;2024-03-23T15:51:02;7.05;99.19
85830;DHT22;76277;49.212;16.680;2024-03-23T15:53:46;7.05;99.19
85830;DHT22;76277;49.212;16.680;2024-03-23T15:56:31;7.05;99.19
85830;DHT22;76277;49.212;16.680;2024-03-23T15:59:16;6.47;97.52
85830;DHT22;76277;49.212;16.680;2024-03-23T16:02:00;6.47;97.52
85830;DHT22;76277;49.212;16.680;2024-03-23T16:04:45;6.47;97.52
85830;DHT22;76277;49.212;16.680;2024-03-23T16:07:30;6.47;97.52
85830;DHT22;76277;49.212;16.680;2024-03-23T16:10:14;6.47;97.52
85830;DHT22;76277;49.212;16.680;2024-03-23T16:12:59;6.47;97.52
85830;DHT22;76277;49.212;16.680;2024-03-23T16:15:44;6.18;96.44
85830;DHT22;76277;49.212;16.680;2024-03-23T16:18:28;6.18;96.44
85830;DHT22;76277;49.212;16.680;2024-03-23T16:21:13;6.18;96.44
85830;DHT22;76277;49.212;16.680;2024-03-23T16:23:57;6.18;96.44
85830;DHT22;76277;49.212;16.680;2024-03-23T16:26:42;6.18;96.44
85830;DHT22;76277;49.212;16.680;2024-03-23T16:29:27;6.12;95.55
85830;DHT22;76277;49.212;16.680;2024-03-23T16:32:12;6.12;95.55
85830;DHT22;76277;49.212;16.680;2024-03-23T16:34:56;6.12;95.55
85830;DHT22;76277;49.212;16.680;2024-03-23T16:37:41;6.12;95.55
85830;DHT22;76277;49.212;16.680;2024-03-23T16:40:25;6.12;95.55
85830;DHT22;76277;49.212;16.680;2024-03-23T16:43:10;6.12;95.55
85830;DHT22;76277;49.212;16.680;2024-03-23T16:45:56;5.84;95.47
85830;DHT22;76277;49.212;16.680;2024-03-23T16:48:40;5.84;95.47
85830;DHT22;76277;49.212;16.680;2024-03-23T16:51:24;5.84;95.47
85830;DHT22;76277;49.212;16.680;2024-03-23T16:54:09;5.84;95.47
85830;DHT22;76277;49.212;16.680;2024-03-23T16:56:53;5.84;95.47
85830;DHT22;76277;49.212;16.680;2024-03-23T16:59:38;5.51;93.21
85830;DHT22;76277;49.212;16.680;2024-03-23T17:02:23;5.51;93.21
85830;DHT22;76277;49.212;16.680;2024-03-23T17:05:07;5.51;93.21
85830;DHT22;76277;49.212;16.680;2024-03-23T17:07:52;5.51;93.21
85830;DHT22;76277;49.212;16.680;2024-03-23T17:10:37;5.51;93.21
85830;DHT22;76277;49.212;16.680;2024-03-23T17:13:21;5.51;93.21
85830;DHT22;76277;49.212;16.680;2024-03-23T17:16:06;5.38;92.69
85830;DHT22;76277;49.212;16.680;2024-03-23T17:18:51;5.38;92.69
85830;DHT22;76277;49.212;16.680;2024-03-23T17:21:36;5.38;92.69
85830;DHT22;76277;49.212;16.680;2024-03-23T17:24:21;5.38;92.69
85830;DHT22;76277;49.212;16.680;2024-03-23T17:27:05;5.38;92.69
85830;DHT22;76277;49.212;16.680;2024-03-23T17:29:49;5.35;92.95
85830;DHT22;76277;49.212;16.680;2024-03-23T17:32:34;5.35;92.95
85830;DHT22;76277;49.212;16.680;2024-03-23T17:35:19;5.35;92.95
85830;DHT22;76277;49.212;16.680;2024-03-23T17:38:04;5.35;92.95
85830;DHT22;76277;49.212;16.680;2024-03-23T17:40:48;5.35;92.95
85830;DHT22;76277;49.212;16.680;2024-03-23T17:43:33;5.35;92.95
85830;DHT22;76277;49.212;16.680;2024-03-23T17:46:17;5.22;90.49
85830;DHT22;76277;49.212;16.680;2024-03-23T17:49:02;5.22;90.49
85830;DHT22;76277;49.212;16.680;2024-03-23T17:51:47;5.22;90.49
85830;DHT22;76277;49.212;16.680;2024-03-23T17:54:31;5.22;90.49
85830;DHT22;76277;49.212;16.680;2024-03-23T17:57:16;5.22;90.49
85830;DHT22;76277;49.212;16.680;2024-03-23T18:00:01;5.19;90.96
85830;DHT22;76277;49.212;16.680;2024-03-23T18:02:46;5.19;90.96
85830;DHT22;76277;49.212;16.680;2024-03-23T18:05:30;5.19;90.96
85830;DHT22;76277;49.212;16.680;2024-03-23T18:08:15;5.19;90.96
85830;DHT22;76277;49.212;16.680;2024-03-23T18:11:06;5.19;90.96
85830;DHT22;76277;49.212;16.680;2024-03-23T18:13:44;5.19;90.96
85830;DHT22;76277;49.212;16.680;2024-03-23T18:16:29;5.19;89.24
85830;DHT22;76277;49.212;16.680;2024-03-23T18:19:13;5.19;89.24
85830;DHT22;76277;49.212;16.680;2024-03-23T18:21:58;5.19;89.24